Time;durP1;ratioP1;P1;durP2;ratioP2;P2;SDS_P1;SDS_P2;PMS_P1;PMS_P2;Temp;Humidity;BMP_temperature;BMP_pressure;BME280_temperature;BME280_humidity;BME280_pressure;Samples;Min_cycle;Max_cycle;Signal;HPM_P1;HPM_P2
2022/04/04 00:02:03;;;;;;;8.27;5.68;;;;;;;;;;4964640;28;20043;-69
2022/04/04 00:04:29;;;;;;;7.75;5.60;;;;;;;;;;4964912;28;20113;-69
2022/04/04 00:06:55;;;;;;;8.00;5.90;;;;;;;;;;4963447;28;20054;-69
2022/04/04 00:09:20;;;;;;;8.95;5.72;;;;;;;;;;4964691;28;20530;-69
2022/04/04 00:11:46;;;;;;;10.95;5.97;;;;;;;;;;4964417;28;20054;-69
2022/04/04 00:14:11;;;;;;;9.95;5.80;;;;;;;;;;4964694;28;20497;-69
2022/04/04 00:16:37;;;;;;;7.40;5.57;;;;;;;;;;4964892;28;20113;-69
2022/04/04 00:19:02;;;;;;;9.15;6.53;;;;;;;;;;4965055;28;20043;-69
2022/04/04 00:21:28;;;;;;;9.48;5.28;;;;;;;;;;4963921;28;20364;-69
2022/04/04 00:23:54;;;;;;;8.88;5.18;;;;;;;;;;4964676;28;20038;-69
2022/04/04 00:26:19;;;;;;;8.02;6.00;;;;;;;;;;4964742;28;20116;-69
2022/04/04 00:28:46;;;;;;;8.98;5.97;;;;;;;;;;4964665;28;20549;-69
2022/04/04 00:31:11;;;;;;;10.98;6.63;;;;;;;;;;4967080;28;20109;-68
2022/04/04 00:33:36;;;;;;;7.95;6.32;;;;;;;;;;4963895;28;20109;-68
2022/04/04 00:36:02;;;;;;;11.32;6.28;;;;;;;;;;4964223;28;20109;-68
2022/04/04 00:38:28;;;;;;;8.00;5.70;;;;;;;;;;4964008;28;20043;-68
2022/04/04 00:40:54;;;;;;;11.00;6.57;;;;;;;;;;4964538;28;20034;-68
2022/04/04 00:43:20;;;;;;;10.30;6.35;;;;;;;;;;4963621;28;20034;-69
2022/04/04 00:45:46;;;;;;;9.82;6.70;;;;;;;;;;4964076;28;20045;-69
2022/04/04 00:48:12;;;;;;;11.30;6.97;;;;;;;;;;4964507;28;20049;-68
2022/04/04 00:50:37;;;;;;;9.50;7.20;;;;;;;;;;4964203;28;20034;-68
2022/04/04 00:53:04;;;;;;;13.73;6.97;;;;;;;;;;4963512;28;20039;-68
2022/04/04 00:55:29;;;;;;;10.65;6.15;;;;;;;;;;4963262;28;20089;-68
2022/04/04 00:57:56;;;;;;;10.65;6.30;;;;;;;;;;4964156;28;20046;-68
2022/04/04 01:00:21;;;;;;;8.93;6.45;;;;;;;;;;4964121;28;20372;-67
2022/04/04 01:02:46;;;;;;;8.32;5.90;;;;;;;;;;4963904;28;20105;-68
2022/04/04 01:05:12;;;;;;;8.88;6.30;;;;;;;;;;4962709;28;20042;-67
2022/04/04 01:07:40;;;;;;;10.27;6.32;;;;;;;;;;4962571;28;20543;-69
2022/04/04 01:10:08;;;;;;;13.05;7.00;;;;;;;;;;4963448;28;20480;-69
2022/04/04 01:12:36;;;;;;;12.85;6.88;;;;;;;;;;4962419;28;20510;-69
2022/04/04 01:15:02;;;;;;;9.30;7.10;;;;;;;;;;4959701;28;20049;-68
2022/04/04 01:17:29;;;;;;;9.20;6.70;;;;;;;;;;4962306;28;20039;-69
2022/04/04 01:19:57;;;;;;;11.02;6.70;;;;;;;;;;4962275;28;20039;-69
2022/04/04 01:22:24;;;;;;;11.77;6.68;;;;;;;;;;4963985;28;20407;-69
2022/04/04 01:24:51;;;;;;;8.73;6.82;;;;;;;;;;4963480;28;20058;-69
2022/04/04 01:27:16;;;;;;;13.25;6.95;;;;;;;;;;4962954;28;20035;-69
2022/04/04 01:29:42;;;;;;;8.75;6.13;;;;;;;;;;4963455;28;20038;-68
2022/04/04 01:32:08;;;;;;;10.10;6.95;;;;;;;;;;4963630;28;20042;-69
2022/04/04 01:34:34;;;;;;;9.13;6.38;;;;;;;;;;4963602;28;20046;-69
2022/04/04 01:36:59;;;;;;;9.88;6.40;;;;;;;;;;4962337;28;20065;-69
2022/04/04 01:39:25;;;;;;;9.25;6.60;;;;;;;;;;4962331;28;20122;-69
2022/04/04 01:41:51;;;;;;;9.52;5.57;;;;;;;;;;4963422;28;20040;-69
2022/04/04 01:44:17;;;;;;;7.32;5.57;;;;;;;;;;4963535;28;20031;-69
2022/04/04 01:46:43;;;;;;;9.43;6.75;;;;;;;;;;4963343;28;20607;-69
2022/04/04 01:49:09;;;;;;;10.43;6.93;;;;;;;;;;4965480;28;20126;-69
2022/04/04 01:51:36;;;;;;;9.43;6.13;;;;;;;;;;4962948;28;20035;-69
2022/04/04 01:54:03;;;;;;;14.02;7.28;;;;;;;;;;4963343;28;20042;-69
2022/04/04 01:56:29;;;;;;;11.25;6.82;;;;;;;;;;4962914;28;20063;-69
2022/04/04 01:58:55;;;;;;;11.65;7.55;;;;;;;;;;4963190;28;20045;-69
2022/04/04 02:01:23;;;;;;;10.77;7.10;;;;;;;;;;4960866;28;20039;-69
2022/04/04 02:03:51;;;;;;;11.95;6.78;;;;;;;;;;4962935;28;20034;-69
2022/04/04 02:06:20;;;;;;;12.00;7.20;;;;;;;;;;4962737;28;20031;-69
2022/04/04 02:08:46;;;;;;;8.82;6.88;;;;;;;;;;4961098;28;20042;-69
2022/04/04 02:11:13;;;;;;;8.57;6.47;;;;;;;;;;4962171;28;20042;-69
2022/04/04 02:13:40;;;;;;;10.95;6.65;;;;;;;;;;4962782;28;20633;-69
2022/04/04 02:16:06;;;;;;;11.40;7.07;;;;;;;;;;4962553;28;20034;-69
2022/04/04 02:18:32;;;;;;;14.40;7.80;;;;;;;;;;4961372;28;20043;-69
2022/04/04 02:20:59;;;;;;;10.38;6.80;;;;;;;;;;4961518;28;20061;-69
2022/04/04 02:23:25;;;;;;;11.25;7.22;;;;;;;;;;4961723;28;20043;-69
2022/04/04 02:25:52;;;;;;;9.00;6.97;;;;;;;;;;4962519;28;20085;-69
2022/04/04 02:28:19;;;;;;;9.25;6.75;;;;;;;;;;4962186;28;20101;-69
2022/04/04 02:30:46;;;;;;;8.93;6.97;;;;;;;;;;4962702;28;20452;-69
2022/04/04 02:33:13;;;;;;;9.40;6.93;;;;;;;;;;4968734;28;20034;-69
2022/04/04 02:35:39;;;;;;;16.58;7.47;;;;;;;;;;4962450;28;20289;-69
2022/04/04 02:38:05;;;;;;;12.60;6.97;;;;;;;;;;4962150;28;20042;-69
2022/04/04 02:40:31;;;;;;;9.48;6.97;;;;;;;;;;4962658;28;20101;-69
2022/04/04 02:42:57;;;;;;;10.00;7.72;;;;;;;;;;4962575;28;20042;-69
2022/04/04 02:45:23;;;;;;;13.80;7.95;;;;;;;;;;4961571;28;20064;-69
2022/04/04 02:47:48;;;;;;;9.15;6.40;;;;;;;;;;4967619;28;20049;-69
2022/04/04 02:50:15;;;;;;;13.48;7.38;;;;;;;;;;4962344;28;20093;-69
2022/04/04 02:52:41;;;;;;;11.98;7.80;;;;;;;;;;4962259;28;20039;-69
2022/04/04 02:57:52;;;;;;;13.27;7.55;;;;;;;;;;4960093;28;20066;-69
2022/04/04 03:00:19;;;;;;;11.43;7.60;;;;;;;;;;4961921;28;20023;-69
2022/04/04 03:02:47;;;;;;;14.02;8.48;;;;;;;;;;4962177;28;20035;-69
2022/04/04 03:05:13;;;;;;;11.07;7.72;;;;;;;;;;4963369;28;20407;-69
2022/04/04 03:07:39;;;;;;;11.60;8.15;;;;;;;;;;4960924;28;20035;-69
2022/04/04 03:10:05;;;;;;;11.85;7.80;;;;;;;;;;4962155;28;20042;-69
2022/04/04 03:12:31;;;;;;;10.18;7.20;;;;;;;;;;4961751;28;20598;-69
2022/04/04 03:14:57;;;;;;;12.25;7.45;;;;;;;;;;4958832;28;20031;-69
2022/04/04 03:17:25;;;;;;;13.40;8.55;;;;;;;;;;4962965;28;20034;-69
2022/04/04 03:19:51;;;;;;;13.07;7.47;;;;;;;;;;4965665;28;20394;-69
2022/04/04 03:22:17;;;;;;;10.15;7.15;;;;;;;;;;4963501;28;20046;-69
2022/04/04 03:24:44;;;;;;;11.27;7.30;;;;;;;;;;4965735;28;20049;-69
2022/04/04 03:27:13;;;;;;;10.50;7.35;;;;;;;;;;4964976;28;20039;-69
2022/04/04 03:29:39;;;;;;;12.25;8.75;;;;;;;;;;4965391;28;20427;-69
2022/04/04 03:32:06;;;;;;;9.90;7.22;;;;;;;;;;4966017;28;20038;-69
2022/04/04 03:34:31;;;;;;;17.05;7.40;;;;;;;;;;4965405;28;20046;-69
2022/04/04 03:36:57;;;;;;;12.23;7.30;;;;;;;;;;4965757;28;20041;-69
2022/04/04 03:39:23;;;;;;;10.60;7.32;;;;;;;;;;4964455;28;20042;-69
2022/04/04 03:41:49;;;;;;;11.10;7.43;;;;;;;;;;4965683;28;20043;-69
2022/04/04 03:44:14;;;;;;;14.32;7.93;;;;;;;;;;4965584;28;20038;-69
2022/04/04 03:46:40;;;;;;;13.05;8.63;;;;;;;;;;4964263;28;20046;-69
2022/04/04 03:49:06;;;;;;;11.77;8.02;;;;;;;;;;4964843;28;20045;-69
2022/04/04 03:51:31;;;;;;;13.90;8.00;;;;;;;;;;4964853;28;20113;-69
2022/04/04 03:53:58;;;;;;;13.10;7.82;;;;;;;;;;4965590;28;20046;-70
2022/04/04 03:56:24;;;;;;;14.63;8.07;;;;;;;;;;4965230;28;20150;-67
2022/04/04 03:58:50;;;;;;;17.92;9.30;;;;;;;;;;4965418;28;20117;-68
2022/04/04 04:01:16;;;;;;;14.93;8.85;;;;;;;;;;4966163;28;20042;-68
2022/04/04 04:03:41;;;;;;;20.05;9.40;;;;;;;;;;4965429;28;20369;-68
2022/04/04 04:06:13;;;;;;;14.80;8.90;;;;;;;;;;4967879;28;20042;-68
2022/04/04 04:08:44;;;;;;;14.73;9.05;;;;;;;;;;4963984;28;20488;-69
2022/04/04 04:11:13;;;;;;;15.15;9.45;;;;;;;;;;4963885;28;20046;-68
2022/04/04 04:13:45;;;;;;;15.98;8.90;;;;;;;;;;4964089;28;20292;-68
2022/04/04 04:16:13;;;;;;;16.98;9.43;;;;;;;;;;4964114;28;20035;-68
2022/04/04 04:18:40;;;;;;;13.82;10.02;;;;;;;;;;4963726;28;20493;-68
2022/04/04 04:21:07;;;;;;;20.55;12.75;;;;;;;;;;4963900;28;20635;-68
2022/04/04 04:23:34;;;;;;;30.63;14.48;;;;;;;;;;4962895;28;20117;-68
2022/04/04 04:26:00;;;;;;;23.60;13.70;;;;;;;;;;4963764;28;20057;-68
2022/04/04 04:28:25;;;;;;;21.83;12.00;;;;;;;;;;4963426;28;20034;-68
2022/04/04 04:30:50;;;;;;;22.92;13.45;;;;;;;;;;4961367;28;20038;-68
2022/04/04 04:33:16;;;;;;;20.67;13.25;;;;;;;;;;4961672;28;20042;-69
2022/04/04 04:35:41;;;;;;;23.42;13.65;;;;;;;;;;4964360;28;20041;-68
2022/04/04 04:38:07;;;;;;;21.27;13.02;;;;;;;;;;4964439;28;20069;-68
2022/04/04 04:40:34;;;;;;;19.38;12.82;;;;;;;;;;4964874;28;20034;-68
2022/04/04 04:42:59;;;;;;;19.58;11.82;;;;;;;;;;4964668;28;20454;-69
2022/04/04 04:45:25;;;;;;;21.25;12.55;;;;;;;;;;4962395;28;20483;-69
2022/04/04 04:47:51;;;;;;;15.60;10.63;;;;;;;;;;4964567;28;20487;-68
2022/04/04 04:50:18;;;;;;;19.67;10.73;;;;;;;;;;4964593;28;20039;-68
2022/04/04 04:52:48;;;;;;;14.40;9.25;;;;;;;;;;4964605;28;20121;-69
2022/04/04 04:55:15;;;;;;;11.70;8.02;;;;;;;;;;4963423;28;20045;-69
2022/04/04 04:57:41;;;;;;;10.85;8.18;;;;;;;;;;4964094;28;20051;-69
2022/04/04 05:00:11;;;;;;;10.30;7.68;;;;;;;;;;4963749;28;20050;-69
2022/04/04 05:02:37;;;;;;;10.20;7.82;;;;;;;;;;4964301;28;20538;-68
2022/04/04 05:05:04;;;;;;;13.40;8.43;;;;;;;;;;4964440;28;20026;-69
2022/04/04 05:07:30;;;;;;;13.88;8.43;;;;;;;;;;4962959;28;20047;-69
2022/04/04 05:09:56;;;;;;;12.40;8.70;;;;;;;;;;4964186;28;20508;-70
2022/04/04 05:12:22;;;;;;;14.68;8.90;;;;;;;;;;4963837;28;20510;-69
2022/04/04 05:14:48;;;;;;;11.73;8.55;;;;;;;;;;4963462;28;20043;-70
2022/04/04 05:17:14;;;;;;;12.98;8.52;;;;;;;;;;4962577;28;20557;-70
2022/04/04 05:19:40;;;;;;;10.65;7.57;;;;;;;;;;4962479;28;20027;-69
2022/04/04 05:22:05;;;;;;;10.55;7.75;;;;;;;;;;4962448;28;20054;-69
2022/04/04 05:24:31;;;;;;;16.52;8.88;;;;;;;;;;4962601;28;20035;-70
2022/04/04 05:26:57;;;;;;;14.90;9.25;;;;;;;;;;4962354;28;20105;-69
2022/04/04 05:29:26;;;;;;;11.57;7.88;;;;;;;;;;4962065;28;20114;-69
2022/04/04 05:31:53;;;;;;;13.35;8.82;;;;;;;;;;4963564;28;20550;-69
2022/04/04 05:34:18;;;;;;;14.27;9.10;;;;;;;;;;4960987;28;20079;-69
2022/04/04 05:36:43;;;;;;;11.88;8.52;;;;;;;;;;4962074;28;20407;-69
2022/04/04 05:39:09;;;;;;;15.52;9.50;;;;;;;;;;4960638;28;20064;-69
2022/04/04 05:41:36;;;;;;;12.93;9.07;;;;;;;;;;4961365;28;20105;-69
2022/04/04 05:44:02;;;;;;;9.25;7.00;;;;;;;;;;4973285;28;20028;-69
2022/04/04 05:46:28;;;;;;;9.10;6.65;;;;;;;;;;4960556;28;20046;-69
2022/04/04 05:48:53;;;;;;;8.70;6.30;;;;;;;;;;4963119;28;20037;-69
2022/04/04 05:51:19;;;;;;;9.68;6.50;;;;;;;;;;4962784;28;20503;-69
2022/04/04 05:53:44;;;;;;;10.88;7.00;;;;;;;;;;4963423;28;20042;-69
2022/04/04 05:56:10;;;;;;;8.85;6.47;;;;;;;;;;4958061;28;20135;-69
2022/04/04 05:58:36;;;;;;;8.57;6.18;;;;;;;;;;4961578;28;20085;-69
2022/04/04 06:01:02;;;;;;;15.57;5.97;;;;;;;;;;4963274;28;20470;-69
2022/04/04 06:03:28;;;;;;;10.65;6.10;;;;;;;;;;4968133;28;20054;-70
2022/04/04 06:05:54;;;;;;;7.97;6.35;;;;;;;;;;4961998;28;20041;-70
2022/04/04 06:08:20;;;;;;;9.85;6.25;;;;;;;;;;4960697;28;20724;-70
2022/04/04 06:10:46;;;;;;;10.32;6.50;;;;;;;;;;4962917;28;20052;-70
2022/04/04 06:13:16;;;;;;;8.27;5.43;;;;;;;;;;4962354;28;20042;-69
2022/04/04 06:15:45;;;;;;;10.73;6.40;;;;;;;;;;4961444;28;20030;-70
2022/04/04 06:18:15;;;;;;;8.85;5.80;;;;;;;;;;4961600;28;20043;-69
2022/04/04 06:20:42;;;;;;;7.25;6.30;;;;;;;;;;4962736;28;20034;-70
2022/04/04 06:23:08;;;;;;;7.20;5.68;;;;;;;;;;4960874;28;20019;-70
2022/04/04 06:25:33;;;;;;;7.20;5.43;;;;;;;;;;4962314;28;20042;-69
2022/04/04 06:27:59;;;;;;;8.25;5.25;;;;;;;;;;4962706;28;20047;-69
2022/04/04 06:30:26;;;;;;;8.95;5.68;;;;;;;;;;4962174;28;20046;-69
2022/04/04 06:32:51;;;;;;;7.75;6.18;;;;;;;;;;4962795;28;20031;-69
2022/04/04 06:35:17;;;;;;;6.75;5.15;;;;;;;;;;4961960;28;20047;-69
2022/04/04 06:37:45;;;;;;;7.57;5.45;;;;;;;;;;4962427;28;20099;-69
2022/04/04 06:40:12;;;;;;;7.47;5.35;;;;;;;;;;4961790;28;20038;-69
2022/04/04 06:42:40;;;;;;;7.65;5.82;;;;;;;;;;4962655;28;20496;-69
2022/04/04 06:45:07;;;;;;;7.13;5.53;;;;;;;;;;4962117;28;20134;-69
2022/04/04 06:47:33;;;;;;;9.50;5.65;;;;;;;;;;4962083;28;20041;-69
2022/04/04 06:50:00;;;;;;;6.97;5.30;;;;;;;;;;4961907;28;20851;-69
2022/04/04 06:52:26;;;;;;;6.20;4.80;;;;;;;;;;4961628;28;20054;-69
2022/04/04 06:54:53;;;;;;;6.75;4.75;;;;;;;;;;4962166;28;20038;-70
2022/04/04 06:57:19;;;;;;;6.60;4.85;;;;;;;;;;4961526;28;20496;-69
2022/04/04 06:59:45;;;;;;;5.80;3.88;;;;;;;;;;4969090;28;20062;-69
2022/04/04 07:02:11;;;;;;;4.68;3.97;;;;;;;;;;4962498;28;20035;-69
2022/04/04 07:04:37;;;;;;;5.60;4.47;;;;;;;;;;4962213;28;20113;-69
2022/04/04 07:07:05;;;;;;;7.57;4.10;;;;;;;;;;4962145;28;20039;-70
2022/04/04 07:09:31;;;;;;;4.10;3.00;;;;;;;;;;4960987;28;20038;-69
2022/04/04 07:11:57;;;;;;;5.43;4.20;;;;;;;;;;4962576;28;20085;-69
2022/04/04 07:14:24;;;;;;;2.65;2.45;;;;;;;;;;4960412;28;20038;-69
2022/04/04 07:16:52;;;;;;;4.35;3.40;;;;;;;;;;4961099;28;20092;-68
2022/04/04 07:19:19;;;;;;;5.05;4.28;;;;;;;;;;4960830;28;20061;-70
2022/04/04 07:21:45;;;;;;;7.55;2.53;;;;;;;;;;4962075;28;20031;-70
2022/04/04 07:24:10;;;;;;;3.75;3.22;;;;;;;;;;4960668;28;20483;-70
2022/04/04 07:26:35;;;;;;;5.47;3.60;;;;;;;;;;4961962;28;20041;-70
2022/04/04 07:29:01;;;;;;;5.30;3.20;;;;;;;;;;4961347;28;20035;-69
2022/04/04 07:31:27;;;;;;;4.47;3.72;;;;;;;;;;4960023;28;20435;-69
2022/04/04 07:33:52;;;;;;;4.38;3.80;;;;;;;;;;4962392;28;20526;-69
2022/04/04 07:36:18;;;;;;;5.63;3.53;;;;;;;;;;4961621;28;20062;-69
2022/04/04 07:38:43;;;;;;;7.72;2.80;;;;;;;;;;4961288;28;20042;-70
2022/04/04 07:41:09;;;;;;;6.22;2.53;;;;;;;;;;4961530;28;20166;-69
2022/04/04 07:43:35;;;;;;;6.05;3.25;;;;;;;;;;4961906;28;20122;-69
2022/04/04 07:46:01;;;;;;;4.15;2.85;;;;;;;;;;4959954;28;20034;-69
2022/04/04 07:48:27;;;;;;;3.67;2.85;;;;;;;;;;4960928;28;20487;-69
2022/04/04 07:50:53;;;;;;;3.00;2.70;;;;;;;;;;4961843;28;20105;-69
2022/04/04 07:53:18;;;;;;;2.58;2.38;;;;;;;;;;4961168;28;20134;-69
2022/04/04 07:55:44;;;;;;;2.88;2.22;;;;;;;;;;4961705;28;20034;-69
2022/04/04 07:58:09;;;;;;;2.60;2.38;;;;;;;;;;4961670;28;20046;-70
2022/04/04 08:00:35;;;;;;;3.40;3.08;;;;;;;;;;4961171;28;20035;-69
2022/04/04 08:03:01;;;;;;;6.40;2.90;;;;;;;;;;4962903;28;20077;-70
2022/04/04 08:05:26;;;;;;;3.85;2.90;;;;;;;;;;4965157;28;20073;-70
2022/04/04 08:07:52;;;;;;;4.28;3.22;;;;;;;;;;4965380;28;20061;-69
2022/04/04 08:10:18;;;;;;;2.00;1.55;;;;;;;;;;4964594;28;20483;-69
2022/04/04 08:12:49;;;;;;;3.38;2.72;;;;;;;;;;4964030;28;20070;-69
2022/04/04 08:15:15;;;;;;;3.58;2.70;;;;;;;;;;4963079;28;20042;-69
2022/04/04 08:17:40;;;;;;;3.50;2.35;;;;;;;;;;4963460;28;20041;-69
2022/04/04 08:20:08;;;;;;;4.10;2.60;;;;;;;;;;4964552;28;20031;-69
2022/04/04 08:22:42;;;;;;;5.18;3.08;;;;;;;;;;4965279;28;20516;-70
2022/04/04 08:25:09;;;;;;;7.93;2.67;;;;;;;;;;4964564;28;20657;-69
2022/04/04 08:27:35;;;;;;;4.55;2.75;;;;;;;;;;4964337;28;21191;-69
2022/04/04 08:30:05;;;;;;;4.32;2.75;;;;;;;;;;4964089;28;20165;-70
2022/04/04 08:32:32;;;;;;;2.60;2.40;;;;;;;;;;4962892;28;20039;-70
2022/04/04 08:34:58;;;;;;;3.45;2.42;;;;;;;;;;4965011;28;20150;-69
2022/04/04 08:37:23;;;;;;;4.43;2.90;;;;;;;;;;4963504;28;20058;-69
2022/04/04 08:39:49;;;;;;;4.57;2.70;;;;;;;;;;4964170;28;20030;-69
2022/04/04 08:42:16;;;;;;;1.77;1.67;;;;;;;;;;4964341;28;20043;-68
2022/04/04 08:44:44;;;;;;;2.65;2.40;;;;;;;;;;4966164;28;20037;-68
2022/04/04 08:47:09;;;;;;;2.08;1.70;;;;;;;;;;4963497;28;20122;-68
2022/04/04 08:49:35;;;;;;;4.28;3.10;;;;;;;;;;4962407;28;20093;-69
2022/04/04 08:52:01;;;;;;;3.25;2.60;;;;;;;;;;4963626;28;20030;-69
2022/04/04 08:54:26;;;;;;;4.55;2.83;;;;;;;;;;4963972;28;20041;-69
2022/04/04 08:56:51;;;;;;;4.78;2.88;;;;;;;;;;4963936;28;20108;-69
2022/04/04 08:59:17;;;;;;;5.90;3.20;;;;;;;;;;4962785;28;20038;-69
2022/04/04 09:01:43;;;;;;;3.47;2.60;;;;;;;;;;4963433;28;20118;-68
2022/04/04 09:04:08;;;;;;;16.90;3.28;;;;;;;;;;4965349;28;20034;-69
2022/04/04 09:06:54;;;;;;;2.95;2.63;;;;;;;;;;4962194;28;20038;-68
2022/04/04 09:09:36;;;;;;;3.55;2.88;;;;;;;;;;4959960;28;20065;-69
2022/04/04 09:12:08;;;;;;;3.10;2.80;;;;;;;;;;4962258;28;20499;-69
2022/04/04 09:14:54;;;;;;;3.20;2.90;;;;;;;;;;4960134;28;20043;-68
2022/04/04 09:17:27;;;;;;;3.47;2.70;;;;;;;;;;4961018;28;20034;-69
2022/04/04 09:19:52;;;;;;;3.58;2.85;;;;;;;;;;4962525;28;20041;-69
2022/04/04 09:22:19;;;;;;;4.05;2.65;;;;;;;;;;4963512;28;20039;-68
2022/04/04 09:24:49;;;;;;;3.70;3.40;;;;;;;;;;4962295;28;20030;-69
2022/04/04 09:27:26;;;;;;;3.10;2.80;;;;;;;;;;4963614;28;20077;-69
2022/04/04 09:30:19;;;;;;;4.00;3.03;;;;;;;;;;4963086;28;20419;-68
2022/04/04 09:32:49;;;;;;;6.03;3.17;;;;;;;;;;4962452;28;20042;-69
2022/04/04 09:35:18;;;;;;;3.47;3.05;;;;;;;;;;4963964;28;20400;-69
2022/04/04 09:37:48;;;;;;;3.17;2.75;;;;;;;;;;4963832;28;20121;-69
2022/04/04 09:40:15;;;;;;;3.33;2.85;;;;;;;;;;4963348;28;20145;-69
2022/04/04 09:42:51;;;;;;;2.83;2.60;;;;;;;;;;4977696;28;20375;-69
2022/04/04 09:45:17;;;;;;;6.97;3.15;;;;;;;;;;4963549;28;20039;-69
2022/04/04 09:47:48;;;;;;;3.97;3.53;;;;;;;;;;4963085;28;20041;-69
2022/04/04 09:50:47;;;;;;;6.53;3.50;;;;;;;;;;4962891;28;20105;-69
2022/04/04 09:53:28;;;;;;;4.22;3.70;;;;;;;;;;4960905;28;20046;-69
2022/04/04 09:55:55;;;;;;;5.30;3.60;;;;;;;;;;4963077;28;20035;-69
2022/04/04 09:58:25;;;;;;;4.90;3.55;;;;;;;;;;4962401;28;20048;-69
2022/04/04 10:00:51;;;;;;;4.13;3.40;;;;;;;;;;4962092;28;20125;-69
2022/04/04 10:03:19;;;;;;;4.38;3.53;;;;;;;;;;4962224;28;20142;-68
2022/04/04 10:05:48;;;;;;;7.80;3.40;;;;;;;;;;4962984;28;20034;-68
2022/04/04 10:08:15;;;;;;;4.35;3.95;;;;;;;;;;4962648;28;20042;-69
2022/04/04 10:10:42;;;;;;;9.82;3.83;;;;;;;;;;4961205;28;20313;-69
2022/04/04 10:13:09;;;;;;;3.80;2.85;;;;;;;;;;4962819;28;20109;-69
2022/04/04 10:15:37;;;;;;;5.82;3.50;;;;;;;;;;4962181;28;20034;-69
2022/04/04 10:18:05;;;;;;;5.82;3.30;;;;;;;;;;4962940;28;20043;-69
2022/04/04 10:20:30;;;;;;;5.60;3.83;;;;;;;;;;4962188;28;20050;-69
2022/04/04 10:22:56;;;;;;;9.63;3.85;;;;;;;;;;4962784;28;20031;-69
2022/04/04 10:25:31;;;;;;;3.38;3.08;;;;;;;;;;4961922;28;20041;-69
2022/04/04 10:27:57;;;;;;;3.70;2.92;;;;;;;;;;4962599;28;20035;-69
2022/04/04 10:30:40;;;;;;;3.40;3.00;;;;;;;;;;4968278;28;20049;-69
2022/04/04 10:33:22;;;;;;;4.18;3.47;;;;;;;;;;4963009;28;20912;-69
2022/04/04 10:36:01;;;;;;;6.50;4.00;;;;;;;;;;4962570;28;20576;-69
2022/04/04 10:38:46;;;;;;;8.00;4.55;;;;;;;;;;4960804;28;20085;-70
2022/04/04 10:41:14;;;;;;;4.15;3.10;;;;;;;;;;4962909;28;20105;-69
2022/04/04 10:43:45;;;;;;;5.13;4.40;;;;;;;;;;4962308;28;20106;-70
2022/04/04 10:46:15;;;;;;;6.55;3.85;;;;;;;;;;4962686;28;20049;-69
2022/04/04 10:48:42;;;;;;;3.72;3.35;;;;;;;;;;4960705;28;20846;-69
2022/04/04 10:51:12;;;;;;;6.88;3.85;;;;;;;;;;4962270;28;20035;-68
2022/04/04 10:53:43;;;;;;;3.28;2.97;;;;;;;;;;4962530;28;20049;-69
2022/04/04 10:56:11;;;;;;;5.10;4.07;;;;;;;;;;4962175;28;20045;-69
2022/04/04 10:58:36;;;;;;;4.35;3.63;;;;;;;;;;4960446;28;20041;-69
2022/04/04 11:01:10;;;;;;;3.95;3.53;;;;;;;;;;4962406;28;20043;-68
2022/04/04 11:03:40;;;;;;;5.97;4.20;;;;;;;;;;4962336;28;20046;-68
2022/04/04 11:09:00;;;;;;;4.25;3.70;;;;;;;;;;4960983;28;20089;-69
2022/04/04 11:11:49;;;;;;;7.82;4.40;;;;;;;;;;4961194;28;20038;-69
2022/04/04 11:14:39;;;;;;;4.10;3.50;;;;;;;;;;4961832;28;20039;-69
2022/04/04 11:20:03;;;;;;;4.70;3.80;;;;;;;;;;4960001;28;20113;-69
2022/04/04 11:22:31;;;;;;;5.00;4.03;;;;;;;;;;4961339;28;20058;-69
2022/04/04 11:25:05;;;;;;;5.07;4.18;;;;;;;;;;4962381;28;20046;-68
2022/04/04 11:27:33;;;;;;;4.28;3.45;;;;;;;;;;4945382;28;20085;-68
2022/04/04 11:30:20;;;;;;;4.78;3.85;;;;;;;;;;4961389;28;20054;-70
2022/04/04 11:32:49;;;;;;;6.55;4.13;;;;;;;;;;4961001;28;20496;-69
2022/04/04 11:35:22;;;;;;;2.70;2.40;;;;;;;;;;4961596;28;20042;-69
2022/04/04 11:38:03;;;;;;;4.28;3.72;;;;;;;;;;4963084;28;20039;-69
2022/04/04 11:40:37;;;;;;;6.10;4.10;;;;;;;;;;4963776;28;20038;-68
2022/04/04 11:43:11;;;;;;;3.88;3.20;;;;;;;;;;4963816;28;20038;-69
2022/04/04 11:45:41;;;;;;;5.57;4.22;;;;;;;;;;4966855;28;20130;-70
2022/04/04 11:48:14;;;;;;;5.57;4.22;;;;;;;;;;4964626;28;20030;-70
2022/04/04 11:50:41;;;;;;;4.70;4.15;;;;;;;;;;4965822;28;20069;-70
2022/04/04 11:53:08;;;;;;;5.78;3.92;;;;;;;;;;4965689;28;20026;-70
2022/04/04 11:55:37;;;;;;;5.35;4.22;;;;;;;;;;4964764;28;20047;-70
2022/04/04 11:58:09;;;;;;;5.28;4.53;;;;;;;;;;4965428;28;20035;-70
2022/04/04 12:00:37;;;;;;;6.50;4.63;;;;;;;;;;4964348;28;20046;-70
2022/04/04 12:03:10;;;;;;;6.57;4.47;;;;;;;;;;4966103;28;20431;-70
2022/04/04 12:05:38;;;;;;;5.07;4.57;;;;;;;;;;4962946;28;20035;-70
2022/04/04 12:08:06;;;;;;;8.27;5.22;;;;;;;;;;4965195;28;20034;-71
2022/04/04 12:10:33;;;;;;;4.78;4.10;;;;;;;;;;4962935;28;20062;-70
2022/04/04 12:13:08;;;;;;;6.85;4.38;;;;;;;;;;4962330;28;20045;-70
2022/04/04 12:15:36;;;;;;;7.95;4.90;;;;;;;;;;4964529;28;20066;-69
2022/04/04 12:18:03;;;;;;;8.38;5.00;;;;;;;;;;4971686;28;20555;-70
2022/04/04 12:20:40;;;;;;;6.07;4.47;;;;;;;;;;4962801;28;20372;-69
2022/04/04 12:25:57;;;;;;;5.60;4.72;;;;;;;;;;4964772;28;20034;-69
2022/04/04 12:28:34;;;;;;;6.18;4.00;;;;;;;;;;4962526;28;20899;-68
2022/04/04 12:31:28;;;;;;;4.68;4.20;;;;;;;;;;4963525;28;20452;-68
2022/04/04 12:34:06;;;;;;;7.25;4.90;;;;;;;;;;4950752;28;20046;-69
2022/04/04 12:36:42;;;;;;;6.88;5.45;;;;;;;;;;4963722;28;20708;-68
2022/04/04 12:39:18;;;;;;;6.75;4.38;;;;;;;;;;4961819;28;20916;-68
2022/04/04 12:41:53;;;;;;;6.00;5.00;;;;;;;;;;4978459;28;20045;-69
2022/04/04 12:44:23;;;;;;;4.63;4.00;;;;;;;;;;4963029;28;20138;-69
2022/04/04 12:46:49;;;;;;;7.00;4.70;;;;;;;;;;4963529;28;20097;-68
2022/04/04 12:49:21;;;;;;;6.13;4.88;;;;;;;;;;4961057;28;20039;-69
2022/04/04 12:51:59;;;;;;;7.05;4.88;;;;;;;;;;4963017;28;20035;-68
2022/04/04 12:54:27;;;;;;;5.85;4.82;;;;;;;;;;4963397;28;20133;-69
2022/04/04 12:56:53;;;;;;;9.05;3.30;;;;;;;;;;4962991;28;20053;-68
2022/04/04 12:59:18;;;;;;;5.90;5.22;;;;;;;;;;4960717;28;20051;-69
2022/04/04 13:02:05;;;;;;;4.65;4.05;;;;;;;;;;4963740;28;20034;-69
2022/04/04 13:04:32;;;;;;;13.38;7.20;;;;;;;;;;4962358;28;20077;-69
2022/04/04 13:07:00;;;;;;;4.28;3.65;;;;;;;;;;4961368;28;20042;-69
2022/04/04 13:09:26;;;;;;;7.43;5.43;;;;;;;;;;4961717;28;20069;-69
2022/04/04 13:11:54;;;;;;;7.18;5.65;;;;;;;;;;4962289;28;20047;-69
2022/04/04 13:14:21;;;;;;;7.30;5.28;;;;;;;;;;4963387;28;20045;-69
2022/04/04 13:17:04;;;;;;;8.82;5.32;;;;;;;;;;4964225;28;20069;-69
2022/04/04 13:19:30;;;;;;;5.38;4.55;;;;;;;;;;4962964;28;20038;-68
2022/04/04 13:21:55;;;;;;;4.80;4.20;;;;;;;;;;4962810;28;20039;-68
2022/04/04 13:24:26;;;;;;;6.55;5.43;;;;;;;;;;4962480;28;20034;-68
2022/04/04 13:26:51;;;;;;;6.85;5.25;;;;;;;;;;4962756;28;20086;-68
2022/04/04 13:29:19;;;;;;;6.78;6.00;;;;;;;;;;4961477;28;20476;-69
2022/04/04 13:31:45;;;;;;;6.25;4.90;;;;;;;;;;4962628;28;20054;-69
2022/04/04 13:34:12;;;;;;;5.32;3.47;;;;;;;;;;4961586;28;20039;-70
2022/04/04 13:36:38;;;;;;;8.27;4.97;;;;;;;;;;4962726;28;20034;-69
2022/04/04 13:39:05;;;;;;;5.10;4.53;;;;;;;;;;4961300;28;20034;-70
2022/04/04 13:41:33;;;;;;;8.52;5.80;;;;;;;;;;4960513;28;20039;-69
2022/04/04 13:43:59;;;;;;;7.05;5.22;;;;;;;;;;4976051;28;20123;-70
2022/04/04 13:46:28;;;;;;;6.15;5.35;;;;;;;;;;4962395;28;20104;-70
2022/04/04 13:48:55;;;;;;;8.23;5.07;;;;;;;;;;4959680;28;20047;-69
2022/04/04 13:51:23;;;;;;;7.70;4.90;;;;;;;;;;4942697;28;20077;-70
2022/04/04 13:53:50;;;;;;;5.97;4.63;;;;;;;;;;4960874;28;20282;-69
2022/04/04 13:56:18;;;;;;;4.90;3.90;;;;;;;;;;4960155;28;20392;-69
2022/04/04 13:58:45;;;;;;;9.88;5.80;;;;;;;;;;4960110;28;20038;-70
2022/04/04 14:01:12;;;;;;;7.90;5.47;;;;;;;;;;4959302;28;20018;-70
2022/04/04 14:03:37;;;;;;;7.22;5.90;;;;;;;;;;4960656;28;20034;-69
2022/04/04 14:06:06;;;;;;;10.15;6.38;;;;;;;;;;4961259;28;20035;-70
2022/04/04 14:08:32;;;;;;;10.82;5.60;;;;;;;;;;4961376;28;20129;-69
2022/04/04 14:10:58;;;;;;;7.25;6.18;;;;;;;;;;4962050;28;20117;-70
2022/04/04 14:13:24;;;;;;;5.07;4.57;;;;;;;;;;4961548;28;20407;-69
2022/04/04 14:15:50;;;;;;;6.97;5.68;;;;;;;;;;4961360;28;20047;-69
2022/04/04 14:18:16;;;;;;;6.28;5.00;;;;;;;;;;4961736;28;20050;-69
2022/04/04 14:20:42;;;;;;;6.47;4.90;;;;;;;;;;4958905;28;20045;-69
2022/04/04 14:23:08;;;;;;;5.85;4.72;;;;;;;;;;4961077;28;20042;-69
2022/04/04 14:25:33;;;;;;;9.25;5.47;;;;;;;;;;4959995;28;20042;-69
2022/04/04 14:27:59;;;;;;;7.50;5.82;;;;;;;;;;4960759;28;20034;-70
2022/04/04 14:30:25;;;;;;;8.43;6.10;;;;;;;;;;4959946;28;20038;-70
2022/04/04 14:32:54;;;;;;;6.18;5.20;;;;;;;;;;4960444;28;20035;-69
2022/04/04 14:35:20;;;;;;;9.18;6.53;;;;;;;;;;4961029;28;20130;-69
2022/04/04 14:37:47;;;;;;;5.63;5.10;;;;;;;;;;4960227;28;20074;-69
2022/04/04 14:40:13;;;;;;;8.40;6.68;;;;;;;;;;4976784;28;20043;-70
2022/04/04 14:42:42;;;;;;;5.93;5.28;;;;;;;;;;4959756;28;20050;-69
2022/04/04 14:45:09;;;;;;;7.85;6.28;;;;;;;;;;4954507;28;20031;-69
2022/04/04 14:47:35;;;;;;;7.82;5.40;;;;;;;;;;4959321;28;20039;-68
2022/04/04 14:50:07;;;;;;;6.13;4.97;;;;;;;;;;4958658;28;20045;-68
2022/04/04 14:52:35;;;;;;;8.13;6.07;;;;;;;;;;4958759;28;20777;-68
2022/04/04 14:55:01;;;;;;;5.68;4.85;;;;;;;;;;4959287;28;20495;-70